Time;durP1;ratioP1;P1;durP2;ratioP2;P2;SDS_P1;SDS_P2;PMS_P1;PMS_P2;Temp;Humidity;BMP_temperature;BMP_pressure;BME280_temperature;BME280_humidity;BME280_pressure;Samples;Min_cycle;Max_cycle;Signal;HPM_P1;HPM_P2
2023/03/01 00:00:48;;;;;;;26.42;15.15;;;;;;;;;;4997159;28;20425;-71
2023/03/01 00:03:14;;;;;;;29.00;16.15;;;;;;;;;;4996744;28;20076;-70
2023/03/01 00:05:46;;;;;;;26.42;15.10;;;;;;;;;;5012660;28;20041;-70
2023/03/01 00:08:12;;;;;;;25.23;14.75;;;;;;;;;;4996866;28;20042;-70
2023/03/01 00:10:38;;;;;;;25.20;15.18;;;;;;;;;;4996627;28;20091;-71
2023/03/01 00:13:05;;;;;;;27.50;15.70;;;;;;;;;;4996867;28;20486;-71
2023/03/01 00:15:35;;;;;;;27.38;14.85;;;;;;;;;;4996600;28;20074;-71
2023/03/01 00:18:01;;;;;;;24.25;14.73;;;;;;;;;;4995778;28;20556;-71
2023/03/01 00:20:27;;;;;;;27.08;14.15;;;;;;;;;;5013921;28;20117;-71
2023/03/01 00:22:53;;;;;;;27.05;15.95;;;;;;;;;;4996705;28;20398;-71
2023/03/01 00:25:19;;;;;;;28.45;14.50;;;;;;;;;;4996695;28;20097;-71
2023/03/01 00:27:45;;;;;;;27.38;15.32;;;;;;;;;;4996486;28;20033;-71
2023/03/01 00:30:11;;;;;;;24.83;14.80;;;;;;;;;;4980524;28;20042;-71
2023/03/01 00:32:37;;;;;;;28.77;14.48;;;;;;;;;;4996314;28;20054;-71
2023/03/01 00:35:05;;;;;;;25.35;14.75;;;;;;;;;;4980238;28;20052;-71
2023/03/01 00:37:31;;;;;;;22.85;13.65;;;;;;;;;;4996351;28;20046;-71
2023/03/01 00:39:57;;;;;;;25.58;14.27;;;;;;;;;;4980289;28;20049;-71
2023/03/01 00:42:23;;;;;;;24.92;14.73;;;;;;;;;;4996319;28;20052;-70
2023/03/01 00:44:50;;;;;;;28.05;14.30;;;;;;;;;;4996067;28;20041;-71
2023/03/01 00:47:16;;;;;;;24.67;13.88;;;;;;;;;;4996102;28;20045;-70
2023/03/01 00:49:42;;;;;;;22.92;13.57;;;;;;;;;;4979910;28;20034;-70
2023/03/01 00:52:08;;;;;;;27.92;14.05;;;;;;;;;;4996107;28;20141;-70
2023/03/01 00:54:34;;;;;;;27.35;14.55;;;;;;;;;;4995197;28;20046;-71
2023/03/01 00:57:00;;;;;;;26.08;13.68;;;;;;;;;;4996042;28;20078;-71
2023/03/01 00:59:26;;;;;;;31.80;14.32;;;;;;;;;;4995758;28;20076;-71
2023/03/01 01:01:52;;;;;;;26.50;14.68;;;;;;;;;;4996437;28;20452;-70
2023/03/01 01:04:18;;;;;;;27.55;14.68;;;;;;;;;;4995567;28;20050;-71
2023/03/01 01:06:45;;;;;;;29.85;14.93;;;;;;;;;;4995995;28;20565;-70
2023/03/01 01:09:19;;;;;;;32.78;15.25;;;;;;;;;;4995768;28;20034;-70
2023/03/01 01:11:46;;;;;;;34.72;17.50;;;;;;;;;;5011907;28;20029;-71
2023/03/01 01:14:12;;;;;;;39.45;19.98;;;;;;;;;;4995583;28;20040;-71
2023/03/01 01:16:38;;;;;;;169.32;23.23;;;;;;;;;;4995619;28;20038;-70
2023/03/01 01:19:04;;;;;;;91.40;21.20;;;;;;;;;;4995748;28;20106;-71
2023/03/01 01:21:31;;;;;;;40.28;19.10;;;;;;;;;;4995292;28;20045;-71
2023/03/01 01:23:58;;;;;;;34.00;16.80;;;;;;;;;;4993024;28;20200;-71
2023/03/01 01:26:29;;;;;;;27.77;14.73;;;;;;;;;;4995457;28;20038;-71
2023/03/01 01:28:55;;;;;;;22.70;13.30;;;;;;;;;;4995469;28;20030;-70
2023/03/01 01:31:23;;;;;;;23.17;12.93;;;;;;;;;;4995009;28;20125;-70
2023/03/01 01:33:49;;;;;;;26.30;12.00;;;;;;;;;;4995331;28;20033;-71
2023/03/01 01:36:15;;;;;;;17.63;11.10;;;;;;;;;;4995113;28;20073;-70
2023/03/01 01:38:44;;;;;;;23.65;11.30;;;;;;;;;;4994875;28;20049;-70
2023/03/01 01:41:11;;;;;;;45.38;13.38;;;;;;;;;;4994781;28;20069;-70
2023/03/01 01:43:40;;;;;;;20.48;12.15;;;;;;;;;;5012872;28;20034;-70
2023/03/01 01:46:27;;;;;;;23.58;11.70;;;;;;;;;;4994913;28;20037;-71
2023/03/01 01:49:01;;;;;;;38.83;11.57;;;;;;;;;;4962681;28;20046;-71
2023/03/01 01:51:38;;;;;;;46.03;12.02;;;;;;;;;;4995339;28;20109;-71
2023/03/01 01:54:06;;;;;;;75.63;12.57;;;;;;;;;;4995990;28;20486;-71
2023/03/01 01:56:32;;;;;;;20.00;11.70;;;;;;;;;;4995808;28;20041;-71
2023/03/01 01:58:58;;;;;;;66.88;12.50;;;;;;;;;;4995570;28;20478;-71
2023/03/01 02:01:24;;;;;;;84.90;11.38;;;;;;;;;;5013369;28;20077;-71
2023/03/01 02:03:51;;;;;;;89.50;12.35;;;;;;;;;;4995883;28;20454;-71
2023/03/01 02:06:36;;;;;;;141.32;13.25;;;;;;;;;;4995403;28;20065;-71
2023/03/01 02:09:05;;;;;;;99.05;12.70;;;;;;;;;;4995591;28;20045;-71
2023/03/01 02:11:32;;;;;;;145.60;13.82;;;;;;;;;;4995685;28;20096;-71
2023/03/01 02:13:58;;;;;;;178.45;14.48;;;;;;;;;;4996071;28;20037;-71
2023/03/01 02:16:25;;;;;;;153.60;13.60;;;;;;;;;;4995503;28;20050;-71
2023/03/01 02:18:51;;;;;;;107.82;13.25;;;;;;;;;;4995798;28;20073;-71
2023/03/01 02:21:27;;;;;;;85.00;11.15;;;;;;;;;;4995369;28;20042;-70
2023/03/01 02:23:55;;;;;;;56.22;11.23;;;;;;;;;;4995805;28;20042;-71
2023/03/01 02:26:26;;;;;;;52.20;11.98;;;;;;;;;;4994754;28;20441;-71
2023/03/01 02:28:52;;;;;;;17.02;10.07;;;;;;;;;;4999239;28;20172;-70
2023/03/01 02:34:05;;;;;;;65.50;10.10;;;;;;;;;;4999586;28;20046;-71
2023/03/01 02:36:39;;;;;;;31.55;9.70;;;;;;;;;;4998983;28;20456;-71
2023/03/01 02:39:06;;;;;;;34.25;9.60;;;;;;;;;;4999425;28;20462;-71
2023/03/01 02:41:35;;;;;;;23.50;8.95;;;;;;;;;;5016842;28;20135;-71
2023/03/01 02:44:02;;;;;;;30.95;9.25;;;;;;;;;;4999572;28;20044;-71
2023/03/01 02:46:28;;;;;;;17.67;9.10;;;;;;;;;;4999007;28;20038;-71
2023/03/01 02:48:56;;;;;;;39.13;9.30;;;;;;;;;;4999426;28;20533;-71
2023/03/01 02:51:22;;;;;;;34.80;9.50;;;;;;;;;;4999113;28;20042;-71
2023/03/01 02:53:59;;;;;;;44.90;9.18;;;;;;;;;;4999247;28;20498;-71
2023/03/01 02:56:26;;;;;;;13.68;8.70;;;;;;;;;;4998836;28;20042;-71
2023/03/01 02:58:52;;;;;;;13.23;8.52;;;;;;;;;;4999057;28;20081;-71
2023/03/01 03:01:19;;;;;;;11.85;8.45;;;;;;;;;;4999126;28;20096;-71
2023/03/01 03:03:45;;;;;;;14.80;9.07;;;;;;;;;;4998654;28;20042;-71
2023/03/01 03:06:11;;;;;;;21.45;8.10;;;;;;;;;;4998619;28;20528;-73
2023/03/01 03:08:37;;;;;;;11.70;7.97;;;;;;;;;;4999319;28;20041;-70
2023/03/01 03:11:03;;;;;;;14.80;8.80;;;;;;;;;;4997544;28;20049;-71
2023/03/01 03:13:29;;;;;;;12.70;8.52;;;;;;;;;;4998132;28;20118;-71
2023/03/01 03:15:56;;;;;;;15.02;9.18;;;;;;;;;;4998737;28;20050;-71
2023/03/01 03:18:22;;;;;;;14.80;9.25;;;;;;;;;;4997547;28;20069;-71
2023/03/01 03:20:52;;;;;;;17.58;10.43;;;;;;;;;;4982301;28;20402;-71
2023/03/01 03:23:19;;;;;;;15.00;9.23;;;;;;;;;;4998534;28;20052;-71
2023/03/01 03:25:45;;;;;;;22.23;9.32;;;;;;;;;;4998571;28;20169;-71
2023/03/01 03:28:11;;;;;;;23.23;9.30;;;;;;;;;;4998901;28;20054;-71
2023/03/01 03:30:39;;;;;;;14.18;8.80;;;;;;;;;;4998408;28;20180;-71
2023/03/01 03:33:06;;;;;;;11.20;8.20;;;;;;;;;;4998084;28;20054;-71
2023/03/01 03:35:33;;;;;;;12.07;7.70;;;;;;;;;;4998332;28;20545;-71
2023/03/01 03:38:01;;;;;;;11.45;8.02;;;;;;;;;;5015134;28;20060;-71
2023/03/01 03:40:28;;;;;;;11.00;8.20;;;;;;;;;;4997918;28;20081;-71
2023/03/01 03:42:54;;;;;;;14.23;9.13;;;;;;;;;;5015959;28;20131;-71
2023/03/01 03:45:20;;;;;;;14.40;9.48;;;;;;;;;;4998090;28;20531;-71
2023/03/01 03:47:47;;;;;;;15.43;8.95;;;;;;;;;;4997797;28;20133;-71
2023/03/01 03:50:13;;;;;;;15.10;9.20;;;;;;;;;;4981138;28;20046;-71
2023/03/01 03:52:40;;;;;;;15.05;8.40;;;;;;;;;;4981645;28;20490;-71
2023/03/01 03:55:10;;;;;;;12.05;8.45;;;;;;;;;;4998096;28;20038;-71
2023/03/01 03:57:36;;;;;;;62.15;9.30;;;;;;;;;;4997740;28;20517;-71
2023/03/01 04:00:05;;;;;;;16.42;8.55;;;;;;;;;;4965558;28;20046;-71
2023/03/01 04:02:31;;;;;;;12.95;8.73;;;;;;;;;;4997742;28;20152;-71
2023/03/01 04:04:57;;;;;;;28.20;9.50;;;;;;;;;;4997946;28;20109;-71
2023/03/01 04:07:23;;;;;;;14.95;9.50;;;;;;;;;;4997668;28;20034;-71
2023/03/01 04:09:49;;;;;;;16.40;9.55;;;;;;;;;;4997478;28;20068;-71
2023/03/01 04:12:20;;;;;;;15.45;9.57;;;;;;;;;;4997624;28;20080;-71
2023/03/01 04:14:46;;;;;;;15.70;9.68;;;;;;;;;;4997789;28;20081;-71
2023/03/01 04:17:12;;;;;;;13.52;9.13;;;;;;;;;;4997800;28;20081;-71
2023/03/01 04:19:38;;;;;;;12.95;9.13;;;;;;;;;;4997478;28;20049;-71
2023/03/01 04:22:09;;;;;;;12.77;8.73;;;;;;;;;;4997433;28;20084;-71
2023/03/01 04:24:37;;;;;;;15.93;8.70;;;;;;;;;;4997331;28;20505;-71
2023/03/01 04:27:03;;;;;;;12.90;8.85;;;;;;;;;;4997508;28;20041;-71
2023/03/01 04:29:29;;;;;;;16.48;8.77;;;;;;;;;;4997239;28;20497;-71
2023/03/01 04:31:56;;;;;;;13.10;8.57;;;;;;;;;;4996857;28;20050;-71
2023/03/01 04:34:22;;;;;;;17.42;8.25;;;;;;;;;;4997531;28;20069;-71
2023/03/01 04:36:48;;;;;;;13.43;8.70;;;;;;;;;;4997218;28;20045;-71
2023/03/01 04:39:14;;;;;;;13.15;8.55;;;;;;;;;;4997031;28;20529;-71
2023/03/01 04:41:40;;;;;;;11.52;8.10;;;;;;;;;;4997111;28;20438;-71
2023/03/01 04:44:08;;;;;;;11.32;7.78;;;;;;;;;;4997036;28;20508;-71
2023/03/01 04:46:35;;;;;;;18.00;8.35;;;;;;;;;;4997228;28;20042;-71
2023/03/01 04:49:01;;;;;;;11.93;7.82;;;;;;;;;;4996827;28;20052;-71
2023/03/01 04:51:27;;;;;;;12.02;8.27;;;;;;;;;;4996964;28;20046;-71
2023/03/01 04:53:53;;;;;;;10.73;7.65;;;;;;;;;;4996996;28;20058;-71
2023/03/01 04:56:20;;;;;;;9.85;7.30;;;;;;;;;;4997005;28;20049;-71
2023/03/01 04:58:46;;;;;;;12.02;7.57;;;;;;;;;;4996716;28;20050;-71
2023/03/01 05:01:15;;;;;;;11.30;7.68;;;;;;;;;;4996830;28;20045;-71
2023/03/01 05:03:45;;;;;;;10.73;7.93;;;;;;;;;;4997142;28;20038;-70
2023/03/01 05:06:11;;;;;;;10.55;7.53;;;;;;;;;;4996302;28;20045;-71
2023/03/01 05:08:38;;;;;;;11.15;7.35;;;;;;;;;;5013969;28;20061;-70
2023/03/01 05:11:05;;;;;;;9.60;7.32;;;;;;;;;;4996400;28;20044;-70
2023/03/01 05:13:31;;;;;;;9.20;7.22;;;;;;;;;;4996190;28;20044;-70
2023/03/01 05:15:58;;;;;;;9.35;6.72;;;;;;;;;;4996628;28;20046;-70
2023/03/01 05:18:25;;;;;;;9.63;7.22;;;;;;;;;;4996551;28;20450;-70
2023/03/01 05:20:58;;;;;;;10.13;6.85;;;;;;;;;;4995969;28;20046;-71
2023/03/01 05:23:24;;;;;;;9.20;6.80;;;;;;;;;;4996468;28;20050;-71
2023/03/01 05:25:52;;;;;;;10.00;7.10;;;;;;;;;;5013459;28;20117;-71
2023/03/01 05:28:19;;;;;;;9.65;7.10;;;;;;;;;;4996347;28;20056;-71
2023/03/01 05:30:45;;;;;;;10.95;7.10;;;;;;;;;;4995884;28;20050;-70
2023/03/01 05:33:13;;;;;;;8.90;7.13;;;;;;;;;;4996183;28;20054;-71
2023/03/01 05:35:42;;;;;;;9.85;7.15;;;;;;;;;;5012143;28;20099;-70
2023/03/01 05:38:12;;;;;;;10.60;7.15;;;;;;;;;;5012944;28;20077;-70
2023/03/01 05:40:39;;;;;;;9.65;7.10;;;;;;;;;;4998321;28;20048;-70
2023/03/01 05:43:05;;;;;;;12.30;7.40;;;;;;;;;;4996252;28;20080;-70
2023/03/01 05:45:34;;;;;;;10.15;7.35;;;;;;;;;;4996008;28;20042;-70
2023/03/01 05:48:01;;;;;;;10.00;7.40;;;;;;;;;;4996038;28;20084;-70
2023/03/01 05:50:28;;;;;;;9.02;7.13;;;;;;;;;;4995826;28;20087;-70
2023/03/01 05:53:07;;;;;;;11.40;7.47;;;;;;;;;;4995940;28;20082;-70
2023/03/01 05:55:34;;;;;;;12.15;8.50;;;;;;;;;;4995875;28;20080;-70
2023/03/01 05:58:01;;;;;;;12.10;8.63;;;;;;;;;;4995868;28;20049;-70
2023/03/01 06:00:27;;;;;;;11.77;7.75;;;;;;;;;;4995598;28;20617;-70
2023/03/01 06:02:54;;;;;;;11.15;7.65;;;;;;;;;;4994912;28;20401;-71
2023/03/01 06:05:20;;;;;;;13.10;7.65;;;;;;;;;;5013162;28;20045;-71
2023/03/01 06:07:47;;;;;;;11.63;8.27;;;;;;;;;;4995691;28;20038;-70
2023/03/01 06:10:13;;;;;;;12.02;8.27;;;;;;;;;;5013136;28;20482;-70
2023/03/01 06:12:40;;;;;;;13.02;7.93;;;;;;;;;;4995705;28;20045;-70
2023/03/01 06:15:07;;;;;;;9.68;7.13;;;;;;;;;;4995606;28;20433;-71
2023/03/01 06:17:37;;;;;;;13.48;7.97;;;;;;;;;;4995696;28;20160;-71
2023/03/01 06:20:07;;;;;;;11.40;7.75;;;;;;;;;;4979427;28;20431;-71
2023/03/01 06:22:33;;;;;;;10.68;7.75;;;;;;;;;;4995886;28;20107;-71
2023/03/01 06:24:59;;;;;;;10.48;7.78;;;;;;;;;;4979225;28;20125;-71
2023/03/01 06:27:25;;;;;;;10.25;6.72;;;;;;;;;;4979402;28;20045;-71
2023/03/01 06:29:51;;;;;;;10.85;7.60;;;;;;;;;;4994595;28;20046;-71
2023/03/01 06:32:18;;;;;;;12.23;8.13;;;;;;;;;;4992203;28;20517;-70
2023/03/01 06:34:44;;;;;;;13.27;8.57;;;;;;;;;;4992547;28;20058;-71
2023/03/01 06:37:10;;;;;;;11.93;8.25;;;;;;;;;;4960124;28;20042;-71
2023/03/01 06:39:36;;;;;;;12.98;8.75;;;;;;;;;;4991864;28;20042;-70
2023/03/01 06:42:02;;;;;;;12.32;8.40;;;;;;;;;;4992276;28;20042;-71
2023/03/01 06:44:28;;;;;;;14.02;9.52;;;;;;;;;;4992444;28;20046;-71
2023/03/01 06:46:54;;;;;;;17.40;9.45;;;;;;;;;;4992106;28;20039;-70
2023/03/01 06:49:21;;;;;;;12.75;8.40;;;;;;;;;;4991961;28;20038;-71
2023/03/01 06:51:47;;;;;;;16.42;9.45;;;;;;;;;;4992173;28;20054;-70
2023/03/01 06:54:13;;;;;;;20.33;9.68;;;;;;;;;;4992312;28;20046;-71
2023/03/01 06:56:39;;;;;;;24.20;9.43;;;;;;;;;;4992063;28;20077;-71
2023/03/01 06:59:05;;;;;;;29.88;9.88;;;;;;;;;;4991959;28;20042;-71
2023/03/01 07:01:32;;;;;;;25.48;9.45;;;;;;;;;;4992108;28;20105;-71
2023/03/01 07:03:58;;;;;;;40.03;9.52;;;;;;;;;;4975697;28;20042;-71
2023/03/01 07:06:24;;;;;;;21.67;9.65;;;;;;;;;;4993103;28;20141;-71
2023/03/01 07:08:50;;;;;;;119.18;11.93;;;;;;;;;;4991830;28;20042;-70
2023/03/01 07:11:16;;;;;;;35.55;10.68;;;;;;;;;;4991823;28;20042;-70
2023/03/01 07:13:42;;;;;;;39.10;9.32;;;;;;;;;;4993386;28;20043;-70
2023/03/01 07:16:09;;;;;;;22.95;9.52;;;;;;;;;;4995452;28;20498;-70
2023/03/01 07:18:35;;;;;;;33.72;10.40;;;;;;;;;;4995765;28;20048;-71
2023/03/01 07:21:08;;;;;;;19.95;9.57;;;;;;;;;;4994700;28;20034;-70
2023/03/01 07:23:36;;;;;;;29.80;9.68;;;;;;;;;;4996558;28;20124;-71
2023/03/01 07:26:02;;;;;;;46.85;10.45;;;;;;;;;;4995059;28;20111;-70
2023/03/01 07:28:28;;;;;;;33.95;9.50;;;;;;;;;;4995497;28;20382;-71
2023/03/01 07:30:55;;;;;;;18.30;9.45;;;;;;;;;;4995248;28;20030;-71
2023/03/01 07:33:21;;;;;;;15.63;9.60;;;;;;;;;;4978600;28;20046;-70
2023/03/01 07:35:47;;;;;;;16.83;8.77;;;;;;;;;;4994837;28;20538;-71
2023/03/01 07:38:13;;;;;;;16.52;9.77;;;;;;;;;;4979155;28;20081;-71
2023/03/01 07:40:39;;;;;;;17.27;9.73;;;;;;;;;;4994788;28;20127;-71
2023/03/01 07:43:05;;;;;;;15.98;10.50;;;;;;;;;;4994863;28;20046;-71
2023/03/01 07:45:31;;;;;;;15.15;9.48;;;;;;;;;;4995013;28;20100;-71
2023/03/01 07:47:57;;;;;;;17.10;10.25;;;;;;;;;;4994550;28;20052;-70
2023/03/01 07:50:23;;;;;;;15.35;9.65;;;;;;;;;;4994694;28;20478;-70
2023/03/01 07:52:50;;;;;;;31.33;10.27;;;;;;;;;;4994736;28;20042;-70
2023/03/01 07:55:16;;;;;;;22.10;10.55;;;;;;;;;;4993080;28;20042;-71
2023/03/01 07:57:43;;;;;;;17.70;10.82;;;;;;;;;;4984672;28;20474;-71
2023/03/01 08:00:11;;;;;;;16.77;9.70;;;;;;;;;;4969090;28;20058;-71
2023/03/01 08:02:37;;;;;;;17.25;9.80;;;;;;;;;;4994649;28;20093;-71
2023/03/01 08:05:03;;;;;;;14.48;9.23;;;;;;;;;;4977794;28;20129;-71
2023/03/01 08:07:29;;;;;;;15.50;9.85;;;;;;;;;;4983780;28;20038;-71
2023/03/01 08:09:55;;;;;;;19.23;10.57;;;;;;;;;;4990517;28;20073;-71
2023/03/01 08:12:21;;;;;;;16.40;10.60;;;;;;;;;;4990318;28;20531;-71
2023/03/01 08:14:47;;;;;;;15.60;9.90;;;;;;;;;;4968996;28;20089;-71
2023/03/01 08:17:17;;;;;;;14.02;9.57;;;;;;;;;;4988588;28;20042;-71
2023/03/01 08:19:43;;;;;;;15.77;9.80;;;;;;;;;;4983874;28;20093;-71
2023/03/01 08:22:09;;;;;;;15.88;10.63;;;;;;;;;;4984309;28;20065;-71
2023/03/01 08:24:35;;;;;;;19.08;12.00;;;;;;;;;;4968175;28;20042;-71
2023/03/01 08:27:02;;;;;;;19.63;12.00;;;;;;;;;;4986973;28;20045;-71
2023/03/01 08:29:28;;;;;;;18.73;12.38;;;;;;;;;;4986307;28;20431;-71
2023/03/01 08:31:55;;;;;;;20.48;12.48;;;;;;;;;;4984309;28;20047;-71
2023/03/01 08:34:21;;;;;;;24.38;14.32;;;;;;;;;;4985677;28;20119;-71
2023/03/01 08:36:47;;;;;;;23.77;14.73;;;;;;;;;;5014826;28;20042;-71
2023/03/01 08:39:15;;;;;;;28.33;17.48;;;;;;;;;;4997181;28;20042;-71
2023/03/01 08:41:42;;;;;;;32.60;16.75;;;;;;;;;;4997200;28;20030;-71
2023/03/01 08:44:08;;;;;;;31.95;18.38;;;;;;;;;;4997121;28;20042;-71
2023/03/01 08:46:38;;;;;;;33.50;18.80;;;;;;;;;;4996721;28;20038;-71
2023/03/01 08:49:15;;;;;;;33.58;19.00;;;;;;;;;;4997192;28;20034;-72
2023/03/01 08:51:41;;;;;;;38.75;21.30;;;;;;;;;;4996962;28;20506;-72
2023/03/01 08:54:08;;;;;;;38.53;23.08;;;;;;;;;;4997146;28;20045;-72
2023/03/01 08:56:34;;;;;;;37.95;21.33;;;;;;;;;;4996084;28;20474;-72
2023/03/01 08:59:00;;;;;;;36.70;21.27;;;;;;;;;;4996122;28;20104;-72
2023/03/01 09:01:26;;;;;;;35.90;20.00;;;;;;;;;;4996699;28;20038;-72
2023/03/01 09:03:52;;;;;;;39.33;23.25;;;;;;;;;;4979926;28;20069;-72
2023/03/01 09:06:19;;;;;;;42.50;22.58;;;;;;;;;;4996460;28;20096;-72
2023/03/01 09:08:46;;;;;;;32.05;18.35;;;;;;;;;;4997071;28;20034;-71
2023/03/01 09:11:15;;;;;;;38.25;21.08;;;;;;;;;;4996294;28;20042;-71
2023/03/01 09:13:42;;;;;;;36.67;20.73;;;;;;;;;;4996746;28;20054;-71
2023/03/01 09:16:08;;;;;;;38.08;21.70;;;;;;;;;;4996603;28;20375;-71
2023/03/01 09:18:35;;;;;;;37.53;22.38;;;;;;;;;;4980271;28;20048;-71
2023/03/01 09:21:07;;;;;;;37.92;20.98;;;;;;;;;;4996143;28;20046;-71
2023/03/01 09:23:43;;;;;;;37.47;21.38;;;;;;;;;;4996416;28;20107;-71
2023/03/01 09:26:10;;;;;;;38.65;21.80;;;;;;;;;;4996219;28;20054;-71
2023/03/01 09:28:37;;;;;;;34.67;20.67;;;;;;;;;;4996272;28;20045;-71
2023/03/01 09:31:04;;;;;;;39.90;22.00;;;;;;;;;;4992430;28;20417;-71
2023/03/01 09:33:30;;;;;;;39.28;20.98;;;;;;;;;;4995949;28;20046;-71
2023/03/01 09:35:58;;;;;;;40.22;22.63;;;;;;;;;;4995955;28;20041;-70
2023/03/01 09:38:24;;;;;;;38.13;21.23;;;;;;;;;;4996253;28;20045;-70
2023/03/01 09:40:50;;;;;;;42.33;20.50;;;;;;;;;;4996048;28;20046;-70
2023/03/01 09:43:22;;;;;;;34.75;19.70;;;;;;;;;;4995981;28;20076;-70
2023/03/01 09:45:49;;;;;;;32.73;19.07;;;;;;;;;;4995934;28;20042;-70
2023/03/01 09:48:17;;;;;;;38.67;20.17;;;;;;;;;;4996374;28;20386;-70
2023/03/01 09:50:44;;;;;;;37.60;20.27;;;;;;;;;;4995699;28;20129;-70
2023/03/01 09:53:12;;;;;;;36.88;19.75;;;;;;;;;;4996209;28;20041;-70
2023/03/01 09:56:00;;;;;;;36.95;20.50;;;;;;;;;;4996156;28;20049;-70
2023/03/01 09:58:38;;;;;;;37.30;19.13;;;;;;;;;;4996110;28;20490;-70
2023/03/01 10:01:24;;;;;;;35.47;19.52;;;;;;;;;;4995188;28;20042;-70
2023/03/01 10:03:56;;;;;;;27.73;17.20;;;;;;;;;;4935282;28;20056;-70
2023/03/01 10:06:23;;;;;;;36.47;18.02;;;;;;;;;;4995769;28;20132;-70
2023/03/01 10:08:57;;;;;;;30.73;17.52;;;;;;;;;;4995746;28;20037;-70
2023/03/01 10:11:24;;;;;;;31.65;17.15;;;;;;;;;;4995358;28;20037;-70
2023/03/01 10:14:05;;;;;;;29.20;16.67;;;;;;;;;;4995520;28;20030;-70
2023/03/01 10:16:31;;;;;;;30.30;16.23;;;;;;;;;;4995544;28;20037;-70
2023/03/01 10:19:00;;;;;;;31.48;18.10;;;;;;;;;;4995570;28;20124;-70
2023/03/01 10:21:28;;;;;;;31.83;17.85;;;;;;;;;;4995610;28;20073;-70
2023/03/01 10:24:09;;;;;;;31.83;18.38;;;;;;;;;;4995111;28;20124;-70
2023/03/01 10:26:55;;;;;;;31.33;17.70;;;;;;;;;;4995267;28;20049;-70
2023/03/01 10:29:25;;;;;;;36.88;18.13;;;;;;;;;;4995409;28;20042;-70
2023/03/01 10:31:52;;;;;;;31.08;18.08;;;;;;;;;;4995396;28;20033;-70
2023/03/01 10:34:20;;;;;;;29.02;18.45;;;;;;;;;;4995329;28;20038;-70
2023/03/01 10:36:50;;;;;;;28.33;17.40;;;;;;;;;;4994605;28;20128;-70
2023/03/01 10:39:18;;;;;;;29.63;18.35;;;;;;;;;;4995468;28;20046;-70
2023/03/01 10:41:55;;;;;;;28.88;17.52;;;;;;;;;;4995496;28;20119;-70
2023/03/01 10:44:38;;;;;;;31.73;17.88;;;;;;;;;;4995963;28;20038;-70
2023/03/01 10:47:04;;;;;;;37.22;21.08;;;;;;;;;;4996811;28;20045;-70
2023/03/01 10:49:30;;;;;;;31.83;18.55;;;;;;;;;;4998717;28;20049;-70
2023/03/01 10:51:57;;;;;;;33.03;18.85;;;;;;;;;;4966591;28;20042;-70
2023/03/01 10:54:27;;;;;;;33.15;18.95;;;;;;;;;;4999316;28;20030;-70
2023/03/01 10:56:58;;;;;;;39.53;20.58;;;;;;;;;;4999467;28;20046;-70
2023/03/01 10:59:34;;;;;;;38.05;19.17;;;;;;;;;;4999177;28;20125;-70
2023/03/01 11:02:09;;;;;;;30.55;18.90;;;;;;;;;;4998941;28;20117;-70
2023/03/01 11:04:36;;;;;;;35.28;20.20;;;;;;;;;;4997992;28;20042;-70
2023/03/01 11:07:03;;;;;;;32.55;18.40;;;;;;;;;;4999513;28;20041;-70
2023/03/01 11:09:39;;;;;;;28.90;18.15;;;;;;;;;;4999248;28;20101;-70
2023/03/01 11:12:08;;;;;;;30.30;19.20;;;;;;;;;;4998888;28;20033;-70
2023/03/01 11:14:37;;;;;;;29.95;19.15;;;;;;;;;;4998737;28;20042;-70
2023/03/01 11:17:04;;;;;;;30.90;17.88;;;;;;;;;;4998773;28;20053;-70
2023/03/01 11:19:31;;;;;;;26.73;17.10;;;;;;;;;;4998776;28;20125;-70
2023/03/01 11:22:03;;;;;;;26.60;14.63;;;;;;;;;;4992953;28;20038;-70
2023/03/01 11:24:29;;;;;;;;;;;;;;;;;;4996799;28;20517;-70
2023/03/01 11:26:56;;;;;;;31.60;16.95;;;;;;;;;;4995026;28;19917;-70
2023/03/01 11:29:32;;;;;;;28.00;16.60;;;;;;;;;;4997503;28;20501;-70
2023/03/01 11:32:00;;;;;;;27.38;16.75;;;;;;;;;;4997401;28;20049;-70
2023/03/01 11:34:35;;;;;;;24.83;16.02;;;;;;;;;;4998222;28;20045;-69
2023/03/01 11:37:03;;;;;;;25.17;17.10;;;;;;;;;;4998441;28;20048;-70
2023/03/01 11:39:38;;;;;;;22.63;15.98;;;;;;;;;;4998325;28;20048;-70
2023/03/01 11:42:12;;;;;;;28.75;16.70;;;;;;;;;;4998339;28;20045;-70
2023/03/01 11:44:39;;;;;;;25.73;16.88;;;;;;;;;;4998219;28;20565;-70
2023/03/01 11:47:05;;;;;;;28.38;16.42;;;;;;;;;;4998481;28;20034;-71
2023/03/01 11:49:31;;;;;;;29.63;17.35;;;;;;;;;;4998072;28;20123;-70
2023/03/01 11:52:07;;;;;;;28.63;17.05;;;;;;;;;;4998652;28;20030;-70
2023/03/01 11:54:45;;;;;;;29.80;17.30;;;;;;;;;;4998369;28;20046;-70
2023/03/01 11:57:23;;;;;;;27.55;17.60;;;;;;;;;;4997879;28;20131;-70
2023/03/01 11:59:59;;;;;;;29.40;17.35;;;;;;;;;;4991351;28;20038;-72
2023/03/01 12:02:54;;;;;;;33.95;18.70;;;7.50;99.90;;;;;;4998270;28;20038;-70
2023/03/01 12:05:29;;;;;;;35.92;19.33;;;;;;;;;;4997828;28;20057;-70
2023/03/01 12:08:00;;;;;;;30.50;18.92;;;;;;;;;;5014469;28;20052;-71
2023/03/01 12:10:30;;;;;;;35.72;18.67;;;;;;;;;;4997657;28;20121;-70
2023/03/01 12:13:07;;;;;;;36.35;18.05;;;;;;;;;;4997828;28;20038;-70
2023/03/01 12:15:52;;;;;;;29.40;16.42;;;;;;;;;;5014328;28;20367;-71
2023/03/01 12:18:50;;;;;;;29.05;17.02;;;7.90;99.90;;;;;;4997470;28;20144;-70
2023/03/01 12:21:19;;;;;;;28.77;17.67;;;;;;;;;;4961627;28;20062;-68
2023/03/01 12:24:17;;;;;;;33.72;17.60;;;8.10;99.90;;;;;;4997278;28;20057;-68
2023/03/01 12:26:46;;;;;;;31.38;17.17;;;;;;;;;;5015047;28;20128;-70
2023/03/01 12:29:26;;;;;;;26.15;16.20;;;;;;;;;;4996986;28;20037;-70
2023/03/01 12:32:11;;;;;;;33.35;17.98;;;;;;;;;;4997008;28;20494;-70
2023/03/01 12:34:37;;;;;;;31.95;17.92;;;;;;;;;;4985074;28;20490;-71
2023/03/01 12:37:06;;;;;;;30.10;18.15;;;;;;;;;;4997719;28;20386;-70
2023/03/01 12:39:50;;;;;;;30.05;17.50;;;8.70;99.90;;;;;;4997035;28;20124;-69
2023/03/01 12:42:35;;;;;;;30.02;17.48;;;;;;;;;;4980834;28;20053;-70
2023/03/01 12:45:17;;;;;;;40.13;18.50;;;;;;;;;;4997019;28;20180;-70
2023/03/01 12:47:50;;;;;;;28.83;16.13;;;;;;;;;;4987533;28;20034;-71
2023/03/01 12:50:22;;;;;;;29.85;16.65;;;;;;;;;;4990291;28;20394;-72
2023/03/01 12:52:50;;;;;;;32.15;16.70;;;;;;;;;;4997112;28;20045;-72
2023/03/01 12:55:19;;;;;;;32.15;17.63;;;;;;;;;;4996989;28;20105;-71
2023/03/01 12:57:50;;;;;;;28.10;16.48;;;;;;;;;;4996816;28;20045;-72
2023/03/01 13:00:16;;;;;;;32.10;17.52;;;;;;;;;;4995747;28;20045;-72
2023/03/01 13:02:49;;;;;;;29.02;16.45;;;;;;;;;;4996671;28;20041;-69
2023/03/01 13:05:15;;;;;;;30.13;17.55;;;;;;;;;;5014233;28;20379;-69
2023/03/01 13:07:56;;;;;;;27.33;16.42;;;;;;;;;;4996597;28;20038;-71
2023/03/01 13:10:43;;;;;;;26.75;16.55;;;;;;;;;;4996466;28;20038;-71
2023/03/01 13:13:19;;;;;;;26.27;15.63;;;;;;;;;;4996557;28;20041;-71
2023/03/01 13:15:47;;;;;;;25.85;15.73;;;;;;;;;;4996760;28;20053;-70
2023/03/01 13:18:16;;;;;;;28.13;15.15;;;;;;;;;;4996791;28;20129;-71
2023/03/01 13:20:42;;;;;;;26.23;15.82;;;;;;;;;;4995063;28;20077;-71
2023/03/01 13:23:13;;;;;;;26.85;16.17;;;;;;;;;;4996692;28;20069;-71
2023/03/01 13:25:57;;;;;;;26.25;15.77;;;;;;;;;;4996535;28;20100;-72
2023/03/01 13:28:33;;;;;;;26.80;15.82;;;;;;;;;;4996764;28;20045;-71
2023/03/01 13:30:59;;;;;;;26.73;15.48;;;;;;;;;;4996182;28;20061;-71
2023/03/01 13:33:28;;;;;;;25.50;15.50;;;;;;;;;;4996451;28;20049;-71
2023/03/01 13:35:55;;;;;;;30.38;14.73;;;;;;;;;;4996199;28;20064;-71
2023/03/01 13:38:43;;;;;;;25.52;14.85;;;;;;;;;;4996377;28;20037;-70
2023/03/01 13:41:09;;;;;;;26.88;15.65;;;;;;;;;;5012261;28;20041;-70
2023/03/01 13:43:36;;;;;;;23.52;14.55;;;;;;;;;;4996524;28;20038;-70
2023/03/01 13:46:08;;;;;;;26.00;15.63;;;;;;;;;;4995858;28;20049;-70
2023/03/01 13:48:34;;;;;;;23.50;15.20;;;;;;;;;;4996509;28;20046;-70
2023/03/01 13:51:05;;;;;;;24.05;15.63;;;;;;;;;;4979375;28;20045;-70
2023/03/01 13:53:34;;;;;;;23.73;15.23;;;;;;;;;;4987202;28;20038;-70
2023/03/01 13:56:08;;;;;;;27.23;16.33;;;;;;;;;;4976731;28;20537;-70
2023/03/01 13:58:44;;;;;;;23.65;15.15;;;;;;;;;;4993489;28;20089;-70
2023/03/01 14:01:21;;;;;;;23.95;15.50;;;;;;;;;;4995773;28;20049;-70
2023/03/01 14:03:47;;;;;;;25.52;16.05;;;;;;;;;;5012059;28;20490;-70
2023/03/01 14:06:15;;;;;;;28.45;15.07;;;;;;;;;;4996086;28;20145;-71
2023/03/01 14:08:41;;;;;;;22.85;14.27;;;;;;;;;;4995279;28;20045;-71
2023/03/01 14:11:14;;;;;;;24.15;14.07;;;;;;;;;;4995867;28;20493;-71
2023/03/01 14:13:51;;;;;;;25.65;14.45;;;;;;;;;;4995179;28;20497;-71
2023/03/01 14:16:33;;;;;;;21.00;13.23;;;;;;;;;;4996117;28;20121;-71
2023/03/01 14:19:06;;;;;;;24.85;14.52;;;;;;;;;;4995583;28;20042;-71
2023/03/01 14:21:32;;;;;;;23.50;14.05;;;;;;;;;;4995513;28;20044;-71
2023/03/01 14:23:59;;;;;;;26.60;13.85;;;;;;;;;;4978897;28;20112;-71
2023/03/01 14:26:25;;;;;;;22.77;13.68;;;;;;;;;;4994522;28;20045;-72
2023/03/01 14:28:51;;;;;;;24.40;13.25;;;;;;;;;;4994739;28;20050;-71
2023/03/01 14:31:35;;;;;;;26.40;13.73;;;;;;;;;;4994893;28;20048;-72
2023/03/01 14:34:02;;;;;;;24.13;13.23;;;;;;;;;;5010193;28;20053;-72